createdAt,value
2022-09-16T00:04:58.623Z,11.43
2022-09-16T00:10:05.243Z,11.55
2022-09-16T00:15:12.250Z,11.72
2022-09-16T00:20:18.519Z,11.88
2022-09-16T00:25:24.707Z,12.07
2022-09-16T00:30:31.010Z,12.20
2022-09-16T00:35:36.898Z,12.28
2022-09-16T00:40:48.864Z,12.33
2022-09-16T00:46:00.477Z,12.37
2022-09-16T00:51:11.183Z,12.36
2022-09-16T00:56:23.643Z,12.30
2022-09-16T01:01:29.585Z,12.28
2022-09-16T01:06:39.562Z,12.29
2022-09-16T01:11:45.928Z,12.31
2022-09-16T01:17:00.022Z,12.33
2022-09-16T01:22:21.080Z,12.38
2022-09-16T01:27:52.510Z,12.41
2022-09-16T01:33:06.091Z,12.41
2022-09-16T01:38:26.325Z,12.42
2022-09-16T01:43:39.612Z,12.41
2022-09-16T01:48:53.953Z,12.35
2022-09-16T01:54:08.478Z,12.27
2022-09-16T01:59:18.965Z,12.25
2022-09-16T02:04:28.374Z,12.27
2022-09-16T02:09:37.562Z,12.30
2022-09-16T02:14:46.696Z,12.36
2022-09-16T02:19:59.151Z,12.43
2022-09-16T02:25:08.527Z,12.48
2022-09-16T02:30:18.711Z,12.52
2022-09-16T02:35:27.141Z,12.55
2022-09-16T02:40:37.327Z,12.55
2022-09-16T02:45:53.017Z,12.54
2022-09-16T02:51:07.276Z,12.54
2022-09-16T02:56:22.372Z,12.53
2022-09-16T03:01:31.828Z,12.51
2022-09-16T03:06:39.220Z,12.51
2022-09-16T03:12:22.638Z,12.53
2022-09-16T03:17:42.406Z,12.54
2022-09-16T03:22:59.589Z,12.48
2022-09-16T03:28:12.725Z,12.41
2022-09-16T03:33:24.578Z,12.33
2022-09-16T03:38:34.053Z,12.20
2022-09-16T03:43:40.515Z,12.04
2022-09-16T03:48:46.678Z,11.91
2022-09-16T03:53:53.691Z,11.81
2022-09-16T03:59:00.290Z,11.67
2022-09-16T04:04:06.188Z,11.56
2022-09-16T04:09:17.639Z,11.53
2022-09-16T04:14:24.465Z,11.56
2022-09-16T04:19:31.162Z,11.56
2022-09-16T04:24:37.181Z,11.52
2022-09-16T04:29:43.237Z,11.50
2022-09-16T04:34:49.411Z,11.49
2022-09-16T04:39:55.849Z,11.53
2022-09-16T04:45:02.214Z,11.67
2022-09-16T04:50:09.387Z,11.81
2022-09-16T04:55:15.767Z,11.88
2022-09-16T05:00:22.110Z,11.91
2022-09-16T05:05:28.298Z,11.95
2022-09-16T05:10:34.453Z,11.97
2022-09-16T05:15:40.566Z,12.04
2022-09-16T05:20:46.529Z,12.24
2022-09-16T05:25:52.684Z,12.50
2022-09-16T05:31:09.496Z,12.71
2022-09-16T05:36:17.371Z,13.03
2022-09-16T05:41:23.814Z,13.79
2022-09-16T05:46:30.087Z,14.52
2022-09-16T05:51:36.931Z,15.11
2022-09-16T05:56:43.515Z,15.28
2022-09-16T06:01:49.951Z,15.29
2022-09-16T06:06:56.311Z,15.24
2022-09-16T06:12:02.760Z,15.28
2022-09-16T06:17:08.838Z,15.76
2022-09-16T06:22:15.173Z,16.44
2022-09-16T06:27:21.281Z,17.06
2022-09-16T06:32:30.559Z,17.72
2022-09-16T06:37:36.508Z,20.12
2022-09-16T06:42:42.333Z,21.01
2022-09-16T06:47:48.599Z,22.53
2022-09-16T06:52:55.749Z,25.55
2022-09-16T06:58:02.408Z,26.88
2022-09-16T07:03:08.613Z,27.30
2022-09-16T07:08:14.380Z,27.08
2022-09-16T07:13:20.196Z,28.68
2022-09-16T07:18:26.373Z,30.12
2022-09-16T07:23:33.470Z,30.44
2022-09-16T07:28:40.110Z,30.08
2022-09-16T07:33:52.397Z,30.13
2022-09-16T07:38:58.846Z,29.91
2022-09-16T07:44:07.424Z,30.29
2022-09-16T07:49:12.795Z,29.94
2022-09-16T07:54:20.348Z,30.02
2022-09-16T07:59:26.642Z,30.83
2022-09-16T08:04:32.725Z,30.85
2022-09-16T08:09:42.292Z,31.60
2022-09-16T08:14:50.443Z,32.31
2022-09-16T08:19:56.584Z,31.92
2022-09-16T08:25:02.763Z,31.28
2022-09-16T08:30:11.460Z,31.32
2022-09-16T08:35:17.400Z,31.31
2022-09-16T08:40:25.160Z,30.05
2022-09-16T08:45:38.083Z,30.12
2022-09-16T08:50:49.269Z,29.68
2022-09-16T08:55:55.935Z,29.43
2022-09-16T09:01:11.949Z,28.88
2022-09-16T09:06:32.073Z,29.07
2022-09-16T09:11:44.594Z,30.15
2022-09-16T09:16:59.214Z,30.24
2022-09-16T09:22:19.104Z,28.94
2022-09-16T09:27:31.903Z,28.33
2022-09-16T09:32:51.345Z,28.15
2022-09-16T09:38:22.149Z,27.33
2022-09-16T09:43:32.985Z,26.03
2022-09-16T09:48:43.285Z,25.55
2022-09-16T09:53:53.165Z,26.14
2022-09-16T09:59:09.303Z,26.07
2022-09-16T10:04:16.347Z,26.13
2022-09-16T10:09:23.650Z,25.64
2022-09-16T10:14:32.974Z,26.18
2022-09-16T10:19:50.962Z,26.95
2022-09-16T10:25:00.196Z,25.53
2022-09-16T10:30:15.719Z,24.09
2022-09-16T10:35:25.122Z,23.69
2022-09-16T10:40:32.021Z,24.55
2022-09-16T10:45:45.263Z,25.79
2022-09-16T10:51:00.955Z,26.88
2022-09-16T10:56:17.034Z,27.64
2022-09-16T11:01:40.380Z,27.96
2022-09-16T11:06:59.458Z,27.73
2022-09-16T11:12:23.076Z,27.23
2022-09-16T11:17:42.463Z,26.76
2022-09-16T11:22:55.967Z,26.43
2022-09-16T11:28:15.990Z,25.88
2022-09-16T11:33:31.121Z,25.29
2022-09-16T11:38:46.020Z,25.13
2022-09-16T11:44:20.527Z,24.84
2022-09-16T11:49:51.402Z,24.67
2022-09-16T11:55:16.601Z,24.58
2022-09-16T12:00:23.773Z,24.26
2022-09-16T12:05:34.726Z,24.08
2022-09-16T12:10:45.762Z,24.26
2022-09-16T12:15:57.432Z,23.90
2022-09-16T12:21:09.995Z,23.32
2022-09-16T12:26:20.294Z,22.47
2022-09-16T12:31:33.646Z,21.54
2022-09-16T12:36:43.306Z,20.79
2022-09-16T12:42:17.093Z,20.24
2022-09-16T12:47:51.773Z,19.88
2022-09-16T12:53:36.923Z,19.65
2022-09-16T12:59:02.856Z,19.34
2022-09-16T13:04:17.712Z,19.28
2022-09-16T13:09:28.353Z,19.58
2022-09-16T13:14:38.082Z,19.87
2022-09-16T13:19:50.227Z,20.39
2022-09-16T13:25:06.639Z,20.82
2022-09-16T13:30:34.500Z,21.06
2022-09-16T13:35:45.292Z,21.19
2022-09-16T13:40:57.474Z,21.21
2022-09-16T13:46:07.503Z,21.04
2022-09-16T13:51:19.052Z,21.09
2022-09-16T13:56:48.298Z,21.00
2022-09-16T14:02:04.864Z,21.02
2022-09-16T14:07:28.279Z,20.96
2022-09-16T14:12:44.021Z,20.82
2022-09-16T14:17:53.895Z,20.73
2022-09-16T14:23:15.859Z,20.43
2022-09-16T14:28:23.336Z,20.24
2022-09-16T14:33:32.638Z,20.10
2022-09-16T14:38:46.536Z,19.82
2022-09-16T14:43:54.942Z,19.46
2022-09-16T14:49:01.219Z,19.23
2022-09-16T14:54:15.715Z,18.99
2022-09-16T14:59:24.729Z,18.78
2022-09-16T15:04:33.767Z,18.55
2022-09-16T15:09:47.150Z,18.27
2022-09-16T15:14:53.423Z,18.06
2022-09-16T15:20:01.174Z,17.85
2022-09-16T15:25:19.418Z,17.68
2022-09-16T15:30:26.898Z,17.62
2022-09-16T15:35:35.468Z,17.48
2022-09-16T15:40:42.047Z,17.36
2022-09-16T15:46:00.495Z,17.27
2022-09-16T15:51:25.715Z,17.04
2022-09-16T15:56:43.944Z,16.82
2022-09-16T16:01:55.575Z,16.61
2022-09-16T16:07:01.163Z,16.37
2022-09-16T16:12:10.107Z,16.18
2022-09-16T16:17:18.779Z,15.96
2022-09-16T16:22:24.618Z,15.78
2022-09-16T16:27:30.690Z,15.60
2022-09-16T16:32:38.608Z,15.41
2022-09-16T16:37:47.159Z,15.22
2022-09-16T16:42:53.818Z,15.04
2022-09-16T16:48:00.450Z,14.88
2022-09-16T16:53:06.451Z,14.69
2022-09-16T16:58:12.743Z,14.49
2022-09-16T17:03:19.251Z,14.29
2022-09-16T17:08:25.170Z,14.10
2022-09-16T17:13:31.733Z,13.93
2022-09-16T17:18:39.070Z,13.72
2022-09-16T17:23:45.936Z,13.45
2022-09-16T17:28:53.710Z,13.17
2022-09-16T17:34:05.509Z,12.96
2022-09-16T17:39:14.924Z,12.88
2022-09-16T17:44:21.145Z,12.84
2022-09-16T17:49:27.202Z,12.88
2022-09-16T17:54:33.243Z,12.89
2022-09-16T17:59:39.268Z,12.87
2022-09-16T18:04:47.776Z,12.90
2022-09-16T18:09:53.769Z,12.92
2022-09-16T18:15:00.674Z,12.93
2022-09-16T18:20:09.088Z,12.92
2022-09-16T18:25:16.305Z,12.90
2022-09-16T18:30:23.787Z,12.86
2022-09-16T18:35:30.200Z,12.78
2022-09-16T18:40:39.662Z,12.69
2022-09-16T18:45:45.996Z,12.59
2022-09-16T18:50:52.085Z,12.54
2022-09-16T18:55:58.425Z,12.52
2022-09-16T19:01:21.464Z,12.52
2022-09-16T19:06:31.694Z,12.50
2022-09-16T19:11:38.280Z,12.46
2022-09-16T19:16:45.701Z,12.39
2022-09-16T19:21:51.766Z,12.30
2022-09-16T19:26:58.542Z,12.22
2022-09-16T19:32:04.621Z,12.21
2022-09-16T19:37:10.672Z,12.21
2022-09-16T19:42:16.774Z,12.23
2022-09-16T19:47:22.929Z,12.21
2022-09-16T19:52:30.003Z,12.13
2022-09-16T19:57:36.476Z,12.04
2022-09-16T20:02:44.988Z,11.95
2022-09-16T20:07:51.106Z,11.88
2022-09-16T20:12:59.500Z,11.80
2022-09-16T20:18:05.905Z,11.76
2022-09-16T20:23:12.204Z,11.78
2022-09-16T20:28:18.814Z,11.79
2022-09-16T20:33:25.933Z,11.75
2022-09-16T20:38:35.702Z,11.66
2022-09-16T20:43:42.141Z,11.57
2022-09-16T20:48:48.681Z,11.54
2022-09-16T20:53:57.024Z,11.50
2022-09-16T20:59:03.144Z,11.48
2022-09-16T21:04:11.242Z,11.44
2022-09-16T21:09:19.250Z,11.36
2022-09-16T21:14:26.170Z,11.27
2022-09-16T21:19:32.341Z,11.19
2022-09-16T21:24:38.645Z,11.14
2022-09-16T21:29:44.891Z,11.15
2022-09-16T21:34:52.773Z,11.18
2022-09-16T21:40:00.546Z,11.14
2022-09-16T21:45:08.055Z,11.06
2022-09-16T21:50:14.413Z,10.99
2022-09-16T21:55:20.802Z,10.96
2022-09-16T22:00:27.408Z,10.96
2022-09-16T22:05:34.044Z,10.94
2022-09-16T22:10:40.462Z,10.92
2022-09-16T22:15:52.603Z,10.87
2022-09-16T22:21:04.715Z,10.84
2022-09-16T22:26:13.056Z,10.84
2022-09-16T22:31:21.726Z,10.79
2022-09-16T22:36:30.622Z,10.73
2022-09-16T22:41:36.936Z,10.68
2022-09-16T22:46:45.242Z,10.68
2022-09-16T22:51:51.607Z,10.69
2022-09-16T22:56:58.242Z,10.64
2022-09-16T23:02:04.259Z,10.58
2022-09-16T23:07:10.378Z,10.64
2022-09-16T23:12:16.970Z,10.62
2022-09-16T23:17:23.077Z,10.56
2022-09-16T23:22:29.444Z,10.49
2022-09-16T23:27:36.013Z,10.45
2022-09-16T23:32:41.987Z,10.43
2022-09-16T23:37:49.374Z,10.40
2022-09-16T23:42:56.249Z,10.35
2022-09-16T23:48:02.782Z,10.30
2022-09-16T23:53:09.039Z,10.30
2022-09-16T23:58:17.373Z,10.29
